Time;durP1;ratioP1;P1;durP2;ratioP2;P2;SDS_P1;SDS_P2;PMS_P1;PMS_P2;Temp;Humidity;BMP_temperature;BMP_pressure;BME280_temperature;BME280_humidity;BME280_pressure;Samples;Min_cycle;Max_cycle;Signal;HPM_P1;HPM_P2
2023/07/02 00:02:19;;;;;;;8.88;2.47;;;;;;;15.30;100.00;99816.13;4859003;29;20066;-82
2023/07/02 00:04:46;;;;;;;3.55;2.08;;;;;;;15.29;100.00;99823.19;4866881;29;20052;-79
2023/07/02 00:07:12;;;;;;;2.50;2.30;;;;;;;15.26;100.00;99809.28;4858369;29;20037;-82
2023/07/02 00:09:39;;;;;;;3.78;2.05;;;;;;;15.24;100.00;99811.97;4847202;29;20089;-78
2023/07/02 00:12:06;;;;;;;2.85;2.20;;;;;;;15.24;100.00;99808.47;4863899;29;20046;-79
2023/07/02 00:14:32;;;;;;;2.95;2.05;;;;;;;15.20;100.00;99805.09;4867761;29;20040;-83
2023/07/02 00:16:59;;;;;;;6.57;2.65;;;;;;;15.19;100.00;99801.63;4850947;29;20481;-81
2023/07/02 00:19:26;;;;;;;2.15;1.77;;;;;;;15.20;100.00;99813.88;4866046;29;20037;-83
2023/07/02 00:21:53;;;;;;;4.85;2.28;;;;;;;15.22;100.00;99816.44;4868413;29;20657;-80
2023/07/02 00:24:20;;;;;;;5.53;2.60;;;;;;;15.22;100.00;99819.09;4862390;29;20045;-81
2023/07/02 00:26:46;;;;;;;3.15;2.15;;;;;;;15.18;100.00;99818.34;4843767;29;20046;-80
2023/07/02 00:29:13;;;;;;;3.13;1.73;;;;;;;15.14;100.00;99818.56;4859275;29;20057;-82
2023/07/02 00:31:40;;;;;;;1.80;1.70;;;;;;;15.10;100.00;99820.44;4864217;29;20066;-79
2023/07/02 00:34:07;;;;;;;3.92;1.70;;;;;;;15.09;100.00;99823.16;4868129;29;20068;-80
2023/07/02 00:36:33;;;;;;;4.75;2.30;;;;;;;15.08;100.00;99819.66;4870363;29;20057;-81
2023/07/02 00:39:24;;;;;;;2.70;1.88;;;;;;;15.00;100.00;99827.03;4842817;29;20057;-82
2023/07/02 00:41:50;;;;;;;5.22;2.08;;;;;;;14.88;100.00;99823.09;4855950;29;20486;-83
2023/07/02 00:44:17;;;;;;;4.30;2.25;;;;;;;14.80;100.00;99825.19;4856272;29;20072;-84
2023/07/02 00:46:43;;;;;;;7.25;2.35;;;;;;;14.73;100.00;99827.19;4859529;29;21006;-82
2023/07/02 00:49:10;;;;;;;2.47;2.00;;;;;;;14.65;100.00;99818.75;4851753;29;20041;-84
2023/07/02 00:51:44;;;;;;;4.68;1.35;;;;;;;14.56;100.00;99819.91;4854921;29;20140;-81
2023/07/02 00:54:13;;;;;;;3.45;2.33;;;;;;;14.47;100.00;99818.53;4841846;29;20037;-80
2023/07/02 00:56:39;;;;;;;3.17;1.75;;;;;;;14.38;100.00;99821.50;4862753;29;20442;-84
2023/07/02 00:59:06;;;;;;;2.25;1.98;;;;;;;14.26;100.00;99820.16;4881151;29;20037;-79
2023/07/02 01:01:37;;;;;;;3.53;2.17;;;;;;;14.21;100.00;99816.88;4864772;29;20068;-82
2023/07/02 01:04:09;;;;;;;2.22;2.00;;;;;;;14.17;100.00;99812.63;4862429;29;20069;-79
2023/07/02 01:06:40;;;;;;;6.20;1.98;;;;;;;14.09;100.00;99807.63;4845590;29;20375;-80
2023/07/02 01:09:07;;;;;;;2.97;2.28;;;;;;;14.07;100.00;99812.97;4861590;29;20049;-83
2023/07/02 01:11:37;;;;;;;2.35;2.10;;;;;;;14.03;100.00;99811.38;4862027;29;20144;-79
2023/07/02 01:14:10;;;;;;;3.15;2.30;;;;;;;14.10;100.00;99809.38;4857242;29;20457;-82
2023/07/02 01:16:37;;;;;;;4.32;2.50;;;;;;;13.95;100.00;99802.91;4854222;29;20045;-82
2023/07/02 01:19:19;;;;;;;2.88;2.30;;;;;;;13.87;100.00;99800.56;4854127;29;20120;-83
2023/07/02 01:21:52;;;;;;;4.85;2.13;;;;;;;13.78;100.00;99800.00;4857898;29;20054;-81
2023/07/02 01:24:21;;;;;;;4.97;2.40;;;;;;;13.70;100.00;99801.16;4842313;29;20056;-79
2023/07/02 01:26:47;;;;;;;3.25;2.45;;;;;;;13.63;100.00;99791.75;4846088;29;20132;-79
2023/07/02 01:29:20;;;;;;;6.55;2.70;;;;;;;13.66;100.00;99796.94;4858373;29;20473;-84
2023/07/02 01:31:48;;;;;;;5.93;2.30;;;;;;;13.64;100.00;99795.28;4858169;29;20034;-81
2023/07/02 01:34:17;;;;;;;4.80;2.75;;;;;;;13.59;100.00;99799.81;4852471;29;20060;-82
2023/07/02 01:36:44;;;;;;;5.35;2.70;;;;;;;13.64;100.00;99800.53;4855780;29;20041;-80
2023/07/02 01:39:10;;;;;;;4.07;3.58;;;;;;;13.64;100.00;99806.63;4861404;29;20065;-79
2023/07/02 01:41:50;;;;;;;3.78;2.70;;;;;;;13.66;100.00;99807.44;4861058;29;20132;-79
2023/07/02 01:44:17;;;;;;;5.88;2.80;;;;;;;13.65;100.00;99811.00;4860577;29;20132;-79
2023/07/02 01:46:48;;;;;;;4.72;3.13;;;;;;;13.65;100.00;99804.84;4848594;29;20557;-85
2023/07/02 01:53:05;;;;;;;7.30;2.42;;;;;;;13.78;100.00;99814.03;4858057;29;20029;-79
2023/07/02 01:55:35;;;;;;;4.05;3.05;;;;;;;13.87;100.00;99818.97;4844024;29;20041;-79
2023/07/02 01:58:03;;;;;;;5.75;2.72;;;;;;;13.93;100.00;99815.25;4844842;29;20053;-79
2023/07/02 02:00:30;;;;;;;5.38;2.60;;;;;;;13.98;100.00;99817.72;4849669;29;20385;-78
2023/07/02 02:02:59;;;;;;;5.28;3.00;;;;;;;14.05;100.00;99808.69;4857706;29;20033;-79
2023/07/02 02:05:26;;;;;;;4.25;2.92;;;;;;;14.07;100.00;99825.28;4854694;29;20073;-79
2023/07/02 02:07:53;;;;;;;2.88;2.67;;;;;;;14.12;100.00;99822.47;4857139;29;20492;-78
2023/07/02 02:10:20;;;;;;;2.92;2.28;;;;;;;14.13;100.00;99822.44;4858875;29;20045;-79
2023/07/02 02:12:46;;;;;;;4.53;3.22;;;;;;;14.15;100.00;99819.75;4857024;29;20042;-78
2023/07/02 02:15:14;;;;;;;7.75;2.85;;;;;;;14.17;100.00;99825.78;4846648;29;20076;-79
2023/07/02 02:17:47;;;;;;;8.77;3.28;;;;;;;14.22;100.00;99823.84;4860441;29;20041;-80
2023/07/02 02:20:14;;;;;;;7.45;3.42;;;;;;;14.25;100.00;99821.13;4859643;29;20501;-81
2023/07/02 02:22:41;;;;;;;5.88;3.38;;;;;;;14.25;100.00;99818.47;4858089;29;20069;-79
2023/07/02 02:25:08;;;;;;;7.28;3.55;;;;;;;14.25;100.00;99822.88;4855890;29;20112;-79
2023/07/02 02:27:34;;;;;;;6.53;3.65;;;;;;;14.29;100.00;99827.97;4853691;29;20437;-79
2023/07/02 02:30:01;;;;;;;5.65;3.85;;;;;;;14.33;100.00;99823.47;4857479;29;20120;-80
2023/07/02 02:32:28;;;;;;;5.55;4.22;;;;;;;14.41;100.00;99829.28;4862614;29;20045;-78
2023/07/02 02:34:54;;;;;;;6.82;4.25;;;;;;;14.41;100.00;99818.75;4860382;29;20041;-82
2023/07/02 02:37:23;;;;;;;4.68;3.40;;;;;;;14.43;100.00;99823.94;4856906;29;20102;-83
2023/07/02 02:39:52;;;;;;;4.97;3.28;;;;;;;14.44;100.00;99823.03;4860023;29;20044;-80
2023/07/02 02:42:20;;;;;;;4.75;4.30;;;;;;;14.42;100.00;99824.84;4853198;29;20048;-79
2023/07/02 02:44:51;;;;;;;5.78;3.78;;;;;;;14.39;100.00;99823.19;4839893;29;20052;-83
2023/07/02 02:47:18;;;;;;;4.38;4.05;;;;;;;14.38;100.00;99819.72;4853882;29;20057;-87
2023/07/02 02:49:45;;;;;;;6.68;4.25;;;;;;;14.39;100.00;99825.84;4847900;29;20137;-80
2023/07/02 02:52:14;;;;;;;7.35;4.90;;;;;;;14.40;100.00;99830.19;4836410;29;20088;-80
2023/07/02 02:54:41;;;;;;;6.78;4.20;;;;;;;14.40;100.00;99824.94;4857863;29;20064;-80
2023/07/02 02:57:07;;;;;;;6.28;4.53;;;;;;;14.45;100.00;99827.41;4861560;29;20082;-79
2023/07/02 02:59:34;;;;;;;6.38;4.78;;;;;;;14.47;100.00;99828.19;4860080;29;20065;-79
2023/07/02 03:02:00;;;;;;;5.13;4.00;;;;;;;14.51;100.00;99821.88;4857914;29;20062;-82
2023/07/02 03:04:27;;;;;;;5.75;4.75;;;;;;;14.54;100.00;99813.88;4858964;29;20381;-79
2023/07/02 03:06:53;;;;;;;5.95;4.78;;;;;;;14.56;100.00;99812.00;4862488;29;20472;-80
2023/07/02 03:09:20;;;;;;;7.22;4.95;;;;;;;14.59;100.00;99821.56;4852565;29;20098;-81
2023/07/02 03:11:48;;;;;;;8.73;4.82;;;;;;;14.61;100.00;99817.97;4858472;29;20160;-81
2023/07/02 03:14:15;;;;;;;8.05;5.22;;;;;;;14.75;100.00;99825.38;4861771;29;20125;-80
2023/07/02 03:16:45;;;;;;;5.07;4.65;;;;;;;14.78;100.00;99814.69;4857673;29;20070;-82
2023/07/02 03:19:14;;;;;;;6.70;5.72;;;;;;;14.80;100.00;99825.19;4855790;29;20102;-80
2023/07/02 03:21:42;;;;;;;10.52;5.63;;;;;;;14.84;100.00;99817.09;4842076;29;20430;-79
2023/07/02 03:24:11;;;;;;;6.88;5.20;;;;;;;14.88;100.00;99817.84;4830518;29;20046;-79
2023/07/02 03:26:38;;;;;;;6.00;4.47;;;;;;;14.97;100.00;99830.63;4847748;29;20048;-79
2023/07/02 03:29:05;;;;;;;5.28;4.65;;;;;;;14.96;100.00;99836.81;4833691;29;20054;-78
2023/07/02 03:31:31;;;;;;;6.43;4.55;;;;;;;14.97;100.00;99830.63;4833812;29;20954;-80
2023/07/02 03:33:58;;;;;;;5.03;4.55;;;;;;;14.98;100.00;99828.84;4839801;29;20065;-86
2023/07/02 03:36:24;;;;;;;6.03;4.90;;;;;;;14.96;100.00;99818.38;4838935;29;20049;-82
2023/07/02 03:38:52;;;;;;;9.00;5.18;;;;;;;14.96;100.00;99817.53;4849403;29;20117;-79
2023/07/02 03:41:18;;;;;;;8.23;5.22;;;;;;;14.95;100.00;99816.66;4845462;29;20046;-83
2023/07/02 03:43:45;;;;;;;5.32;4.82;;;;;;;14.94;100.00;99822.88;4845087;29;20056;-79
2023/07/02 03:46:12;;;;;;;4.35;3.80;;;;;;;14.93;100.00;99815.00;4864497;29;20037;-80
2023/07/02 03:48:39;;;;;;;5.70;5.20;;;;;;;14.93;100.00;99818.50;4848693;29;20038;-79
2023/07/02 03:51:05;;;;;;;6.20;5.60;;;;;;;14.93;100.00;99820.25;4837049;29;20665;-79
2023/07/02 03:53:32;;;;;;;8.55;4.82;;;;;;;14.92;100.00;99824.69;4851413;29;20343;-80
2023/07/02 03:55:58;;;;;;;7.05;4.82;;;;;;;14.90;100.00;99823.91;4844261;29;20050;-80
2023/07/02 03:58:26;;;;;;;6.88;5.45;;;;;;;14.88;100.00;99815.19;4848049;29;20144;-80
2023/07/02 04:00:53;;;;;;;7.15;5.65;;;;;;;14.88;100.00;99817.84;4843839;29;20053;-80
2023/07/02 04:03:19;;;;;;;9.00;5.43;;;;;;;14.92;100.00;99834.38;4846462;29;20041;-79
2023/07/02 04:05:48;;;;;;;6.68;5.22;;;;;;;14.93;100.00;99844.84;4842795;29;20046;-84
2023/07/02 04:08:16;;;;;;;5.88;5.15;;;;;;;14.96;100.00;99842.09;4845125;29;20049;-80
2023/07/02 04:10:43;;;;;;;6.03;4.85;;;;;;;14.99;100.00;99836.72;4844424;29;20050;-80
2023/07/02 04:13:10;;;;;;;7.20;5.40;;;;;;;14.96;100.00;99839.44;4842528;29;20487;-82
2023/07/02 04:15:39;;;;;;;5.60;5.13;;;;;;;14.93;100.00;99838.72;4844519;29;20056;-81
2023/07/02 04:18:08;;;;;;;6.18;4.90;;;;;;;14.93;100.00;99843.97;4845949;29;20077;-79
2023/07/02 04:20:36;;;;;;;7.35;5.00;;;;;;;14.92;100.00;99824.69;4832269;29;20046;-79
2023/07/02 04:23:03;;;;;;;7.72;4.93;;;;;;;14.89;100.00;99841.47;4854213;29;20069;-80
2023/07/02 04:25:30;;;;;;;5.53;4.38;;;;;;;14.90;100.00;99842.38;4858130;29;20500;-82
2023/07/02 04:27:58;;;;;;;5.15;3.78;;;;;;;14.89;100.00;99846.75;4867218;29;20080;-83
2023/07/02 04:30:27;;;;;;;10.43;4.80;;;;;;;14.92;100.00;99842.28;4870836;29;20515;-84
2023/07/02 04:32:54;;;;;;;10.52;4.68;;;;;;;14.93;100.00;99849.25;4853010;29;20068;-81
2023/07/02 04:35:20;;;;;;;7.35;5.20;;;;;;;14.92;100.00;99853.69;4856957;29;20052;-79
2023/07/02 04:37:50;;;;;;;9.68;4.93;;;;;;;14.86;100.00;99844.25;4854414;29;20116;-84
2023/07/02 04:40:20;;;;;;;9.55;4.97;;;;;;;14.82;100.00;99852.31;4854464;29;20139;-82
2023/07/02 04:42:47;;;;;;;10.93;5.45;;;;;;;14.81;100.00;99858.50;4855960;29;20124;-82
2023/07/02 04:45:15;;;;;;;9.68;4.65;;;;;;;14.76;100.00;99863.97;4860771;29;20045;-79
2023/07/02 04:47:46;;;;;;;8.63;4.50;;;;;;;14.71;100.00;99864.13;4859089;29;20506;-80
2023/07/02 04:50:13;;;;;;;7.35;5.38;;;;;;;14.73;100.00;99866.72;4843782;29;20072;-79
2023/07/02 04:52:39;;;;;;;8.38;4.38;;;;;;;14.74;100.00;99859.69;4854952;29;20105;-79
2023/07/02 04:55:07;;;;;;;19.95;6.57;;;;;;;14.75;100.00;99869.31;4865499;29;20064;-78
2023/07/02 04:57:34;;;;;;;15.13;6.05;;;;;;;14.72;100.00;99873.75;4846691;29;20068;-79
2023/07/02 05:00:01;;;;;;;7.63;5.07;;;;;;;14.69;100.00;99878.28;4857449;29;20391;-82
2023/07/02 05:02:27;;;;;;;12.35;5.60;;;;;;;14.68;100.00;99874.81;4857372;29;20361;-81
2023/07/02 05:04:54;;;;;;;10.60;4.65;;;;;;;14.68;100.00;99871.31;4845593;29;20057;-80
2023/07/02 05:07:21;;;;;;;12.07;5.30;;;;;;;14.69;100.00;99875.66;4853284;29;20077;-82
2023/07/02 05:09:55;;;;;;;10.18;5.03;;;;;;;14.69;100.00;99873.03;4830534;29;20030;-79
2023/07/02 05:12:24;;;;;;;10.27;6.00;;;;;;;14.72;100.00;99872.91;4857969;29;20128;-82
2023/07/02 05:14:51;;;;;;;13.18;5.00;;;;;;;14.71;100.00;99874.69;4858971;29;20042;-80
2023/07/02 05:17:18;;;;;;;10.68;5.05;;;;;;;14.77;100.00;99878.00;4858275;29;20053;-80
2023/07/02 05:19:45;;;;;;;11.82;4.97;;;;;;;14.83;100.00;99875.13;4855008;29;20121;-79
2023/07/02 05:22:11;;;;;;;13.73;5.05;;;;;;;14.87;100.00;99879.34;4852691;29;20053;-79
2023/07/02 05:24:40;;;;;;;11.98;4.50;;;;;;;14.93;100.00;99884.38;4858629;29;20037;-78
2023/07/02 05:27:07;;;;;;;5.82;4.20;;;;;;;14.98;100.00;99882.44;4857526;29;20177;-80
2023/07/02 05:29:33;;;;;;;12.80;4.55;;;;;;;14.97;100.00;99885.13;4874342;29;20052;-84
2023/07/02 05:32:02;;;;;;;8.63;4.60;;;;;;;14.99;100.00;99883.28;4860225;29;20049;-80
2023/07/02 05:34:29;;;;;;;10.98;5.28;;;;;;;15.02;100.00;99888.44;4853911;29;20046;-84
2023/07/02 05:36:55;;;;;;;10.70;4.60;;;;;;;15.03;100.00;99877.84;4848750;29;20477;-79
2023/07/02 05:39:22;;;;;;;8.55;4.82;;;;;;;14.90;100.00;99884.53;4843929;29;20496;-79
2023/07/02 05:41:49;;;;;;;10.77;4.60;;;;;;;14.78;100.00;99885.81;4852955;29;20049;-80
2023/07/02 05:44:15;;;;;;;11.05;5.53;;;;;;;14.65;100.00;99882.84;4860106;29;20041;-79
2023/07/02 05:46:42;;;;;;;10.55;4.95;;;;;;;14.55;100.00;99884.91;4860448;29;20038;-80
2023/07/02 05:49:09;;;;;;;9.57;5.22;;;;;;;14.51;100.00;99890.34;4859574;29;20147;-80
2023/07/02 05:51:39;;;;;;;12.35;5.35;;;;;;;14.53;100.00;99889.38;4858219;29;20061;-81
2023/07/02 05:54:05;;;;;;;8.63;4.32;;;;;;;14.59;100.00;99893.56;4859450;29;20065;-79
2023/07/02 05:56:32;;;;;;;8.00;4.75;;;;;;;14.66;100.00;99892.44;4858646;29;20037;-82
2023/07/02 05:58:58;;;;;;;8.15;4.35;;;;;;;14.69;100.00;99902.00;4863427;29;20124;-80
2023/07/02 06:01:25;;;;;;;8.70;5.60;;;;;;;14.77;100.00;99899.06;4859124;29;20045;-81
2023/07/02 06:03:52;;;;;;;12.38;5.13;;;;;;;14.82;100.00;99899.75;4858886;29;20127;-81
2023/07/02 06:06:18;;;;;;;9.77;5.28;;;;;;;14.90;100.00;99902.97;4858529;29;20508;-82
2023/07/02 06:08:45;;;;;;;12.10;5.05;;;;;;;15.02;100.00;99905.09;4857667;29;20784;-80
2023/07/02 06:11:11;;;;;;;11.57;5.07;;;;;;;15.19;100.00;99900.94;4844403;29;20512;-83
2023/07/02 06:13:38;;;;;;;10.85;5.88;;;;;;;15.25;100.00;99913.88;4860172;29;20121;-80
2023/07/02 06:16:05;;;;;;;11.55;5.20;;;;;;;15.29;100.00;99915.47;4860450;29;20077;-83
2023/07/02 06:18:31;;;;;;;12.00;4.72;;;;;;;15.35;100.00;99914.38;4839949;29;20049;-83
2023/07/02 06:20:58;;;;;;;13.93;6.03;;;;;;;15.45;100.00;99912.19;4854272;29;20068;-84
2023/07/02 06:23:25;;;;;;;14.20;5.28;;;;;;;15.57;100.00;99910.88;4853823;29;20061;-85
2023/07/02 06:25:58;;;;;;;11.98;5.35;;;;;;;15.65;99.82;99916.66;4873452;29;20068;-81
2023/07/02 06:28:25;;;;;;;18.77;5.47;;;;;;;15.71;99.19;99917.25;4858860;29;20049;-82
2023/07/02 06:30:58;;;;;;;12.75;6.13;;;;;;;15.75;99.09;99923.28;4849889;29;20515;-80
2023/07/02 06:33:26;;;;;;;11.52;5.05;;;;;;;15.75;99.27;99920.63;4879165;29;20484;-81
2023/07/02 06:35:53;;;;;;;12.27;5.30;;;;;;;15.82;98.97;99916.81;4861615;29;20049;-83
2023/07/02 06:38:20;;;;;;;14.52;6.45;;;;;;;15.90;96.91;99921.78;4862371;29;20069;-81
2023/07/02 06:40:47;;;;;;;16.00;5.72;;;;;;;15.93;96.17;99928.72;4850439;29;20120;-80
2023/07/02 06:43:13;;;;;;;8.02;4.70;;;;;;;15.97;94.35;99925.88;4844557;29;20478;-80
2023/07/02 06:45:40;;;;;;;10.48;5.75;;;;;;;16.00;92.47;99931.03;4858376;29;20050;-79
2023/07/02 06:48:07;;;;;;;13.55;6.30;;;;;;;16.08;89.13;99941.25;4844543;29;20056;-79
2023/07/02 06:50:33;;;;;;;17.13;5.85;;;;;;;16.19;88.06;99935.50;4861204;29;20132;-79
2023/07/02 06:53:00;;;;;;;13.65;6.00;;;;;;;16.20;85.06;99937.22;4858596;29;20107;-79
2023/07/02 06:55:28;;;;;;;11.68;5.25;;;;;;;16.22;86.74;99940.66;4866422;29;20049;-79
2023/07/02 06:57:55;;;;;;;12.18;5.60;;;;;;;16.27;87.31;99937.81;4866015;29;20037;-83
2023/07/02 07:00:22;;;;;;;11.98;5.47;;;;;;;16.33;87.68;99950.75;4876465;29;20105;-80
2023/07/02 07:02:48;;;;;;;10.93;6.20;;;;;;;16.45;87.96;99938.78;4851837;29;20069;-80
2023/07/02 07:05:15;;;;;;;16.48;6.57;;;;;;;16.52;88.04;99946.34;4867796;29;20160;-80
2023/07/02 07:07:45;;;;;;;13.68;6.20;;;;;;;16.73;87.64;99948.13;4849267;29;20064;-81
2023/07/02 07:10:12;;;;;;;12.55;5.55;;;;;;;16.98;87.25;99953.13;4855485;29;20041;-80
2023/07/02 07:12:39;;;;;;;11.73;5.75;;;;;;;17.12;87.20;99958.63;4858487;29;20041;-80
2023/07/02 07:15:06;;;;;;;10.88;5.60;;;;;;;17.32;87.24;99962.97;4866905;29;20108;-78
2023/07/02 07:17:33;;;;;;;8.35;4.95;;;;;;;17.33;86.60;99963.84;4866235;29;20354;-82
2023/07/02 07:19:59;;;;;;;11.60;5.55;;;;;;;17.35;84.32;99965.47;4866387;29;20041;-82
2023/07/02 07:22:36;;;;;;;;;;;;;;;;;;;;;
2023/07/02 07:25:12;;;;;;;14.18;5.63;;;;;;;17.36;83.09;99964.56;4843065;29;20044;-80
2023/07/02 07:27:41;;;;;;;11.88;5.43;;;;;;;17.78;80.22;99972.22;4855672;29;20486;-80
2023/07/02 07:30:08;;;;;;;12.20;5.53;;;;;;;17.70;77.82;99975.25;4856416;29;20519;-80
2023/07/02 07:32:35;;;;;;;13.32;6.18;;;;;;;17.67;78.13;99965.69;4881331;29;20119;-80
2023/07/02 07:35:02;;;;;;;12.35;5.00;;;;;;;17.85;77.56;99986.88;4862046;29;20048;-83
2023/07/02 07:37:28;;;;;;;15.85;6.25;;;;;;;18.14;76.53;99987.22;4863818;29;20037;-81
2023/07/02 07:39:55;;;;;;;15.23;6.90;;;;;;;18.38;75.44;99984.25;4864612;29;22250;-81
2023/07/02 07:42:22;;;;;;;14.05;6.40;;;;;;;18.40;73.08;99992.97;4862435;29;20064;-84
2023/07/02 07:44:48;;;;;;;12.43;6.13;;;;;;;18.29;73.89;99989.09;4864880;29;20085;-81
2023/07/02 07:47:15;;;;;;;18.30;7.35;;;;;;;18.24;74.53;99982.31;4863401;29;20064;-84
2023/07/02 07:49:42;;;;;;;17.80;6.35;;;;;;;18.78;71.39;99990.09;4866888;29;20128;-81
2023/07/02 07:52:09;;;;;;;14.15;7.20;;;;;;;19.49;66.65;99987.06;4851451;29;20124;-84
2023/07/02 07:54:36;;;;;;;13.93;6.47;;;;;;;19.71;63.80;99985.84;4870471;29;20436;-81
2023/07/02 07:57:05;;;;;;;14.70;6.50;;;;;;;19.25;66.06;99991.94;4862266;29;20041;-84
2023/07/02 07:59:31;;;;;;;11.40;6.43;;;;;;;19.16;67.40;99988.03;4866053;29;20053;-80
2023/07/02 08:02:01;;;;;;;12.68;6.80;;;;;;;19.09;68.25;99994.59;4868138;29;20095;-79
2023/07/02 08:04:28;;;;;;;12.52;5.43;;;;;;;19.68;66.82;99988.66;4864367;29;20048;-80
2023/07/02 08:06:57;;;;;;;13.55;6.25;;;;;;;20.39;64.55;99992.50;4851980;29;20135;-84
2023/07/02 08:09:28;;;;;;;12.68;5.80;;;;;;;19.96;65.07;100006.56;4868620;29;20069;-80
2023/07/02 08:11:55;;;;;;;13.77;6.85;;;;;;;19.13;66.08;100008.56;4877001;29;20486;-80
2023/07/02 08:14:21;;;;;;;20.38;7.18;;;;;;;18.53;69.10;100017.91;4881908;29;20041;-80
2023/07/02 08:16:48;;;;;;;16.33;6.53;;;;;;;18.27;68.03;100014.81;4868204;29;20056;-81
2023/07/02 08:19:15;;;;;;;12.82;7.00;;;;;;;18.01;69.75;100013.47;4848368;29;20052;-82
2023/07/02 08:21:41;;;;;;;17.48;6.88;;;;;;;18.03;70.67;100011.63;4859242;29;20081;-81
2023/07/02 08:24:08;;;;;;;12.18;6.28;;;;;;;18.99;67.06;100010.19;4867339;29;20037;-82
2023/07/02 08:26:34;;;;;;;12.68;6.43;;;;;;;20.50;63.84;100011.31;4861226;29;20054;-80
2023/07/02 08:29:01;;;;;;;16.40;7.03;;;;;;;21.41;58.76;100014.63;4866908;29;20048;-85
2023/07/02 08:31:28;;;;;;;14.40;6.43;;;;;;;20.94;57.93;100014.03;4851193;29;20056;-81
2023/07/02 08:33:55;;;;;;;13.65;6.03;;;;;;;20.07;59.12;100015.69;4853543;29;20041;-80
2023/07/02 08:36:21;;;;;;;14.57;6.28;;;;;;;20.05;57.54;100025.53;4860717;29;20041;-81
2023/07/02 08:38:48;;;;;;;17.63;7.75;;;;;;;20.79;54.90;100023.81;4876158;29;20104;-83
2023/07/02 08:41:18;;;;;;;13.68;6.63;;;;;;;21.29;53.17;100030.41;4857296;29;20045;-85
2023/07/02 08:43:45;;;;;;;13.55;7.00;;;;;;;20.64;52.12;100025.59;4856517;29;20175;-86
2023/07/02 08:46:15;;;;;;;12.45;6.05;;;;;;;19.98;54.61;100017.91;4856223;29;20041;-81
2023/07/02 08:48:42;;;;;;;15.98;5.85;;;;;;;20.26;51.88;100032.25;4869079;29;20505;-79
2023/07/02 08:51:11;;;;;;;12.57;5.95;;;;;;;21.14;49.94;100042.88;4867145;29;20041;-81
2023/07/02 08:53:38;;;;;;;11.30;5.75;;;;;;;21.73;46.79;100044.53;4870171;29;20385;-81
2023/07/02 08:56:05;;;;;;;15.75;6.53;;;;;;;22.03;44.70;100038.13;4871110;29;20029;-80
2023/07/02 08:58:31;;;;;;;18.63;6.63;;;;;;;22.33;44.81;100038.81;4851062;29;20488;-80
2023/07/02 09:01:12;;;;;;;14.25;7.32;;;;;;;21.87;45.10;100042.75;4869035;29;20101;-79
2023/07/02 09:03:41;;;;;;;11.68;6.57;;;;;;;21.58;46.73;100040.19;4847483;29;20838;-80
2023/07/02 09:06:12;;;;;;;10.25;5.30;;;;;;;21.15;48.10;100039.28;4871299;29;20052;-80
2023/07/02 09:08:39;;;;;;;13.43;6.18;;;;;;;20.63;48.79;100056.63;4857383;29;20088;-82
2023/07/02 09:11:11;;;;;;;11.18;5.85;;;;;;;20.82;48.50;100048.41;4855511;29;20044;-82
2023/07/02 09:13:58;;;;;;;14.73;6.00;;;;;;;22.15;43.41;100044.44;4859325;29;20052;-80
2023/07/02 09:16:36;;;;;;;12.18;6.10;;;;;;;22.94;42.29;100044.41;4866449;29;20041;-80
2023/07/02 09:19:12;;;;;;;14.63;6.10;;;;;;;22.51;42.47;100031.41;4864347;29;20053;-80
2023/07/02 09:21:44;;;;;;;15.40;6.47;;;;;;;21.58;42.59;100050.84;4860260;29;20085;-80
2023/07/02 09:24:22;;;;;;;10.43;6.28;;;;;;;20.79;45.25;100051.28;4858655;29;20038;-79
2023/07/02 09:27:02;;;;;;;13.57;6.50;;;;;;;20.28;46.20;100043.63;4862035;29;20044;-80
2023/07/02 09:29:33;;;;;;;13.40;7.15;;;;;;;20.02;47.10;100047.00;4875064;29;20115;-80
2023/07/02 09:32:04;;;;;;;16.63;6.90;;;;;;;20.03;47.27;100054.03;4864500;29;20046;-80
2023/07/02 09:34:40;;;;;;;13.60;6.55;;;;;;;20.98;45.66;100048.31;4853784;29;20038;-80
2023/07/02 09:37:09;;;;;;;11.70;5.75;;;;;;;21.54;44.85;100044.84;4852496;29;20056;-80
2023/07/02 09:39:38;;;;;;;10.30;7.00;;;;;;;22.71;42.79;100057.53;4863633;29;20894;-80
2023/07/02 09:42:11;;;;;;;11.98;6.32;;;;;;;23.68;39.67;100040.94;4876037;29;20131;-80
2023/07/02 09:44:38;;;;;;;;;;;;;;;23.07;40.25;100052.38;4858092;29;20048;-79
2023/07/02 09:47:07;;;;;;;13.70;6.68;;;;;;;21.82;42.16;100051.03;4851878;29;19935;-84
2023/07/02 09:49:37;;;;;;;10.80;6.68;;;;;;;21.12;44.27;100058.09;4836669;29;20493;-81
2023/07/02 09:52:10;;;;;;;11.50;6.93;;;;;;;21.27;43.55;100058.94;4856906;29;20053;-80
2023/07/02 09:54:38;;;;;;;12.80;6.70;;;;;;;22.77;40.83;100049.09;4858818;29;20041;-80
2023/07/02 09:57:08;;;;;;;12.32;6.55;;;;;;;23.27;38.83;100059.00;4861068;29;20050;-82
2023/07/02 09:59:36;;;;;;;12.63;6.93;;;;;;;23.43;37.67;100054.25;4853884;29;20049;-81
2023/07/02 10:02:02;;;;;;;12.93;7.45;;;;;;;23.22;37.37;100056.69;4840107;29;20059;-79
2023/07/02 10:04:54;;;;;;;15.57;6.22;;;;;;;21.73;40.46;100067.63;4877493;29;20112;-79
2023/07/02 10:07:33;;;;;;;12.10;6.63;;;;;;;20.89;42.05;100079.97;4856953;29;20049;-79
2023/07/02 10:10:00;;;;;;;15.57;6.60;;;;;;;20.35;42.49;100070.75;4843570;29;20041;-81
2023/07/02 10:12:29;;;;;;;10.98;6.63;;;;;;;21.25;41.40;100081.28;4856842;29;20033;-80
2023/07/02 10:14:58;;;;;;;9.98;5.68;;;;;;;21.90;39.81;100082.50;4858935;29;20569;-82
2023/07/02 10:17:37;;;;;;;11.00;5.47;;;;;;;21.97;40.56;100076.66;4841557;29;20050;-83
2023/07/02 10:20:10;;;;;;;12.45;6.18;;;;;;;22.58;39.64;100078.00;4873045;29;20056;-80
2023/07/02 10:22:52;;;;;;;11.00;5.30;;;;;;;22.71;38.91;100088.69;4854694;29;20137;-82
2023/07/02 10:25:31;;;;;;;10.10;6.07;;;;;;;21.80;40.90;100096.44;4855746;29;20053;-80
2023/07/02 10:27:59;;;;;;;12.13;6.32;;;;;;;21.31;41.41;100096.88;4857935;29;20844;-81
2023/07/02 10:30:39;;;;;;;8.57;5.05;;;;;;;21.74;40.48;100091.50;4852923;29;20057;-79
2023/07/02 10:33:11;;;;;;;11.88;5.70;;;;;;;22.16;39.23;100071.94;4878443;29;20048;-80
2023/07/02 10:35:38;;;;;;;10.73;6.05;;;;;;;22.45;38.77;100078.84;4862551;29;20049;-80
2023/07/02 10:38:07;;;;;;;9.07;5.75;;;;;;;22.04;39.41;100108.25;4858581;29;20056;-85
2023/07/02 10:40:36;;;;;;;12.50;6.50;;;;;;;21.30;41.54;100101.34;4851062;29;20045;-82
2023/07/02 10:43:03;;;;;;;9.23;5.00;;;;;;;21.03;42.28;100111.03;4854551;29;20493;-84
2023/07/02 10:45:35;;;;;;;14.82;6.95;;;;;;;20.93;42.42;100108.09;4849152;29;20061;-82
2023/07/02 10:48:08;;;;;;;14.68;7.07;;;;;;;21.28;42.12;100110.38;4858922;29;20093;-82
2023/07/02 10:50:35;;;;;;;14.75;6.72;;;;;;;21.78;41.57;100111.69;4867187;29;20516;-81
2023/07/02 10:53:02;;;;;;;12.60;5.38;;;;;;;21.96;41.50;100108.75;4867766;29;20046;-85
2023/07/02 10:55:31;;;;;;;9.95;5.32;;;;;;;21.66;42.30;100106.28;4869848;29;20050;-81
2023/07/02 10:58:07;;;;;;;9.75;5.60;;;;;;;21.62;42.26;100109.13;4865588;29;20049;-80
2023/07/02 11:00:47;;;;;;;11.20;5.50;;;;;;;20.88;42.71;100100.38;4864627;29;20053;-84
2023/07/02 11:03:25;;;;;;;16.80;5.80;;;;;;;21.34;42.44;100101.16;4868502;29;20053;-84
2023/07/02 11:05:52;;;;;;;10.23;5.95;;;;;;;22.84;39.85;100110.91;4864889;29;20049;-80
2023/07/02 11:08:21;;;;;;;10.20;6.43;;;;;;;23.75;38.24;100109.84;4860926;29;20045;-85
2023/07/02 11:10:47;;;;;;;7.57;5.60;;;;;;;25.22;35.94;100111.34;4862959;29;20328;-82
2023/07/02 11:13:16;;;;;;;10.45;5.60;;;;;;;26.82;34.51;100083.09;4877858;29;20966;-83
2023/07/02 11:15:45;;;;;;;9.52;5.07;;;;;;;27.09;32.10;100095.91;4849382;29;20057;-86
2023/07/02 11:18:17;;;;;;;10.68;6.20;;;;;;;27.69;32.13;100100.53;4861871;29;20044;-89
2023/07/02 11:20:46;;;;;;;8.68;5.38;;;;;;;28.59;31.03;100085.16;4864617;29;20061;-85
2023/07/02 11:23:27;;;;;;;9.15;5.90;;;;;;;29.33;29.25;100098.84;4879925;29;20047;-80
2023/07/02 11:26:04;;;;;;;10.63;6.18;;;;;;;27.82;30.38;100084.13;4868724;29;20044;-80
2023/07/02 11:28:34;;;;;;;11.77;6.50;;;;;;;25.10;33.41;100115.84;4880979;29;20056;-79
2023/07/02 11:31:02;;;;;;;11.23;5.30;;;;;;;22.93;37.77;100107.59;4864101;29;20129;-82
2023/07/02 11:33:41;;;;;;;7.20;5.40;;;;;;;21.92;39.61;100108.09;4865453;29;20124;-79
2023/07/02 11:36:20;;;;;;;13.02;6.38;;;;;;;21.12;41.56;100116.66;4868766;29;20049;-79